Time;durP1;ratioP1;P1;durP2;ratioP2;P2;SDS_P1;SDS_P2;PMS_P1;PMS_P2;Temp;Humidity;BMP_temperature;BMP_pressure;BME280_temperature;BME280_humidity;BME280_pressure;Samples;Min_cycle;Max_cycle;Signal;HPM_P1;HPM_P2
2023/08/25 00:00:55;;;;;;;35.95;28.77;;;;;;;;;;5073956;28;20032;-77
2023/08/25 00:03:20;;;;;;;29.73;22.95;;;;;;;;;;5075030;28;20514;-79
2023/08/25 00:05:46;;;;;;;28.88;21.35;;;;;;;;;;5055189;28;20169;-79
2023/08/25 00:08:11;;;;;;;26.23;22.50;;;;;;;;;;5074879;28;20035;-80
2023/08/25 00:10:37;;;;;;;30.63;20.38;;;;;;;;;;5075652;28;20038;-80
2023/08/25 00:13:03;;;;;;;21.98;19.98;;;;;;;;;;5076515;28;20043;-81
2023/08/25 00:15:28;;;;;;;23.60;19.95;;;;;;;;;;5072603;28;20046;-79
2023/08/25 00:17:54;;;;;;;22.17;19.63;;;;;;;;;;5064943;28;20111;-78
2023/08/25 00:20:19;;;;;;;25.55;20.23;;;;;;;;;;5076538;28;20085;-78
2023/08/25 00:22:45;;;;;;;25.77;19.77;;;;;;;;;;5073670;28;20043;-79
2023/08/25 00:25:10;;;;;;;22.17;19.30;;;;;;;;;;5075079;28;20031;-79
2023/08/25 00:27:35;;;;;;;20.55;18.63;;;;;;;;;;5067989;28;20035;-77
2023/08/25 00:30:01;;;;;;;27.80;18.48;;;;;;;;;;5052191;28;20055;-80
2023/08/25 00:32:26;;;;;;;21.73;17.65;;;;;;;;;;5074655;28;20075;-78
2023/08/25 00:34:51;;;;;;;21.88;18.52;;;;;;;;;;5074950;28;20442;-79
2023/08/25 00:37:17;;;;;;;21.63;19.27;;;;;;;;;;5073368;28;20668;-79
2023/08/25 00:39:42;;;;;;;26.02;19.88;;;;;;;;;;5075119;28;20028;-79
2023/08/25 00:42:08;;;;;;;24.17;19.73;;;;;;;;;;5073448;28;20027;-78
2023/08/25 00:44:34;;;;;;;24.27;18.13;;;;;;;;;;5072746;28;20028;-78
2023/08/25 00:47:00;;;;;;;19.70;17.58;;;;;;;;;;5051507;28;20056;-78
2023/08/25 00:49:26;;;;;;;18.58;16.00;;;;;;;;;;5070818;28;20020;-79
2023/08/25 00:51:52;;;;;;;19.70;17.60;;;;;;;;;;5079663;28;20020;-77
2023/08/25 00:54:19;;;;;;;18.63;16.63;;;;;;;;;;5076681;28;20042;-79
2023/08/25 00:56:45;;;;;;;20.27;17.00;;;;;;;;;;5078292;28;20366;-78
2023/08/25 00:59:10;;;;;;;20.55;16.58;;;;;;;;;;5059175;28;20134;-77
2023/08/25 01:01:36;;;;;;;19.15;16.98;;;;;;;;;;5076844;28;20090;-78
2023/08/25 01:04:02;;;;;;;20.48;16.33;;;;;;;;;;5059932;28;20153;-77
2023/08/25 01:06:27;;;;;;;23.90;16.45;;;;;;;;;;5075898;28;20147;-79
2023/08/25 01:08:53;;;;;;;20.85;16.75;;;;;;;;;;5076064;28;20165;-78
2023/08/25 01:11:30;;;;;;;18.05;16.35;;;;;;;;;;5066541;28;20056;-78
2023/08/25 01:14:08;;;;;;;23.63;16.20;;;;;;;;;;5070217;28;20996;-79
2023/08/25 01:16:39;;;;;;;20.15;15.02;;;;;;;;;;5065529;28;20020;-79
2023/08/25 01:19:10;;;;;;;19.77;16.02;;;;;;;;;;5068325;28;20035;-79
2023/08/25 01:21:38;;;;;;;20.67;15.38;;;;;;;;;;5063092;28;20031;-79
2023/08/25 01:24:06;;;;;;;18.65;15.43;;;;;;;;;;5065248;28;20032;-78
2023/08/25 01:26:31;;;;;;;18.88;15.55;;;;;;;;;;5071421;28;20041;-76
2023/08/25 01:28:57;;;;;;;15.95;14.27;;;;;;;;;;5067717;28;20718;-80
2023/08/25 01:31:22;;;;;;;21.20;16.05;;;;;;;;;;5066505;28;20027;-79
2023/08/25 01:33:48;;;;;;;16.13;14.52;;;;;;;;;;5072417;28;20036;-79
2023/08/25 01:36:17;;;;;;;18.08;16.05;;;;;;;;;;5075959;28;20024;-78
2023/08/25 01:38:45;;;;;;;19.15;15.07;;;;;;;;;;5079858;28;20016;-79
2023/08/25 01:41:30;;;;;;;18.83;14.95;;;;;;;;;;5076953;28;20048;-76
2023/08/25 01:43:56;;;;;;;20.30;16.00;;;;;;;;;;5069710;28;20036;-76
2023/08/25 01:46:22;;;;;;;16.35;14.65;;;;;;;;;;5044765;28;20055;-79
2023/08/25 01:48:49;;;;;;;18.27;16.02;;;;;;;;;;5048082;28;20024;-78
2023/08/25 01:51:16;;;;;;;16.92;15.30;;;;;;;;;;5057837;28;20451;-78
2023/08/25 01:53:44;;;;;;;17.55;15.02;;;;;;;;;;5057324;28;20036;-77
2023/08/25 01:56:10;;;;;;;18.17;15.40;;;;;;;;;;5057324;28;20351;-76
2023/08/25 01:58:35;;;;;;;16.08;14.63;;;;;;;;;;5056088;28;20037;-76
2023/08/25 02:01:00;;;;;;;25.13;15.65;;;;;;;;;;5056456;28;20017;-77
2023/08/25 02:03:26;;;;;;;18.85;15.60;;;;;;;;;;5056559;28;20036;-78
2023/08/25 02:05:52;;;;;;;23.52;15.35;;;;;;;;;;5045563;28;20033;-75
2023/08/25 02:08:17;;;;;;;20.75;15.95;;;;;;;;;;5042156;28;20056;-77
2023/08/25 02:10:44;;;;;;;16.95;14.95;;;;;;;;;;5043863;28;20066;-77
2023/08/25 02:13:09;;;;;;;19.08;16.10;;;;;;;;;;5045187;28;20036;-77
2023/08/25 02:15:35;;;;;;;18.35;14.40;;;;;;;;;;5053384;28;20028;-77
2023/08/25 02:18:00;;;;;;;17.08;14.68;;;;;;;;;;5045417;28;20029;-79
2023/08/25 02:20:25;;;;;;;15.95;14.07;;;;;;;;;;5055438;28;20447;-77
2023/08/25 02:22:51;;;;;;;19.73;14.45;;;;;;;;;;5054188;28;20028;-79
2023/08/25 02:25:16;;;;;;;15.07;13.57;;;;;;;;;;5056679;28;20111;-77
2023/08/25 02:27:43;;;;;;;15.35;13.77;;;;;;;;;;5054437;28;20031;-78
2023/08/25 02:30:09;;;;;;;15.88;14.25;;;;;;;;;;5041014;28;20029;-76
2023/08/25 02:32:34;;;;;;;16.27;13.73;;;;;;;;;;5055972;28;20036;-75
2023/08/25 02:34:59;;;;;;;19.58;14.02;;;;;;;;;;5055246;28;20088;-76
2023/08/25 02:37:25;;;;;;;17.27;15.25;;;;;;;;;;5047674;28;20359;-78
2023/08/25 02:39:50;;;;;;;14.77;13.27;;;;;;;;;;5030920;28;20055;-78
2023/08/25 02:42:15;;;;;;;17.95;15.05;;;;;;;;;;5049797;28;20028;-77
2023/08/25 02:44:41;;;;;;;16.50;14.75;;;;;;;;;;5052717;28;20086;-77
2023/08/25 02:47:06;;;;;;;16.95;14.45;;;;;;;;;;5033081;28;20405;-77
2023/08/25 02:49:31;;;;;;;19.88;15.00;;;;;;;;;;5035537;28;20563;-77
2023/08/25 02:51:58;;;;;;;18.35;14.80;;;;;;;;;;5026624;28;20029;-76
2023/08/25 02:54:23;;;;;;;15.10;13.70;;;;;;;;;;5037058;28;20436;-76
2023/08/25 02:56:49;;;;;;;14.93;13.43;;;;;;;;;;5035322;28;20091;-76
2023/08/25 02:59:14;;;;;;;19.73;14.30;;;;;;;;;;5024163;28;20029;-76
2023/08/25 03:01:39;;;;;;;16.05;14.43;;;;;;;;;;5024864;28;20115;-77
2023/08/25 03:04:05;;;;;;;18.73;15.40;;;;;;;;;;5024855;28;20052;-79
2023/08/25 03:06:30;;;;;;;17.25;15.48;;;;;;;;;;5032500;28;20383;-76
2023/08/25 03:08:55;;;;;;;21.67;15.30;;;;;;;;;;5023512;28;20035;-77
2023/08/25 03:11:21;;;;;;;23.98;15.88;;;;;;;;;;5004675;28;20044;-79
2023/08/25 03:13:46;;;;;;;18.55;15.32;;;;;;;;;;5018656;28;20040;-78
2023/08/25 03:16:11;;;;;;;17.10;15.15;;;;;;;;;;5022678;28;20026;-77
2023/08/25 03:18:37;;;;;;;19.52;15.63;;;;;;;;;;5004739;28;20024;-76
2023/08/25 03:21:03;;;;;;;21.73;15.35;;;;;;;;;;5024943;28;20025;-76
2023/08/25 03:23:28;;;;;;;21.13;15.27;;;;;;;;;;5036209;28;20029;-76
2023/08/25 03:25:53;;;;;;;17.00;14.98;;;;;;;;;;5037430;28;20136;-77
2023/08/25 03:28:19;;;;;;;17.20;14.25;;;;;;;;;;5036158;28;20115;-78
2023/08/25 03:30:44;;;;;;;19.98;15.25;;;;;;;;;;5034863;28;20364;-77
2023/08/25 03:33:09;;;;;;;20.30;14.20;;;;;;;;;;5026340;28;20028;-78
2023/08/25 03:35:35;;;;;;;18.00;14.95;;;;;;;;;;5030974;28;20100;-78
2023/08/25 03:38:00;;;;;;;17.27;13.52;;;;;;;;;;5035185;28;20035;-77
2023/08/25 03:40:26;;;;;;;16.48;14.15;;;;;;;;;;5034021;28;20037;-77
2023/08/25 03:42:52;;;;;;;16.73;14.70;;;;;;;;;;5003070;28;20076;-77
2023/08/25 03:45:17;;;;;;;15.35;13.80;;;;;;;;;;5023908;28;20021;-77
2023/08/25 03:47:42;;;;;;;16.65;14.40;;;;;;;;;;5022834;28;20052;-78
2023/08/25 03:50:08;;;;;;;16.13;13.52;;;;;;;;;;5022942;28;20044;-79
2023/08/25 03:52:33;;;;;;;20.30;14.15;;;;;;;;;;5019099;28;20100;-75
2023/08/25 03:54:59;;;;;;;15.93;13.57;;;;;;;;;;5021236;28;20094;-78
2023/08/25 03:57:24;;;;;;;18.80;13.70;;;;;;;;;;5022782;28;20394;-78
2023/08/25 03:59:49;;;;;;;18.15;13.70;;;;;;;;;;5004331;28;20364;-76
2023/08/25 04:02:15;;;;;;;15.45;13.85;;;;;;;;;;5025241;28;20037;-74
2023/08/25 04:04:40;;;;;;;17.45;14.25;;;;;;;;;;5033830;28;20035;-75
2023/08/25 04:07:05;;;;;;;19.33;14.75;;;;;;;;;;5034708;28;20120;-74
2023/08/25 04:09:31;;;;;;;15.75;14.05;;;;;;;;;;5033844;28;20437;-73
2023/08/25 04:11:56;;;;;;;16.35;13.82;;;;;;;;;;5033694;28;20017;-76
2023/08/25 04:14:22;;;;;;;15.23;13.32;;;;;;;;;;5033274;28;20083;-76
2023/08/25 04:16:47;;;;;;;16.23;14.50;;;;;;;;;;5031688;28;20422;-75
2023/08/25 04:19:16;;;;;;;16.25;13.43;;;;;;;;;;5032881;28;20036;-75
2023/08/25 04:21:42;;;;;;;15.88;13.80;;;;;;;;;;5028006;28;20825;-77
2023/08/25 04:24:07;;;;;;;16.55;14.45;;;;;;;;;;5037622;28;20056;-78
2023/08/25 04:26:32;;;;;;;19.40;14.52;;;;;;;;;;5038640;28;20437;-78
2023/08/25 04:28:58;;;;;;;17.00;15.30;;;;;;;;;;5038124;28;20948;-77
2023/08/25 04:31:23;;;;;;;17.08;14.63;;;;;;;;;;5040347;28;20103;-75
2023/08/25 04:33:48;;;;;;;24.10;15.50;;;;;;;;;;5028539;28;20040;-76
2023/08/25 04:36:14;;;;;;;16.40;14.75;;;;;;;;;;5036622;28;20024;-74
2023/08/25 04:38:39;;;;;;;17.83;15.65;;;;;;;;;;5039153;28;20029;-71
2023/08/25 04:41:04;;;;;;;22.08;14.73;;;;;;;;;;5033433;28;20112;-72
2023/08/25 04:43:30;;;;;;;17.02;14.82;;;;;;;;;;5025504;28;20033;-71
2023/08/25 04:45:55;;;;;;;18.17;15.27;;;;;;;;;;5024866;28;20061;-74
2023/08/25 04:48:22;;;;;;;20.30;15.52;;;;;;;;;;5038302;28;20020;-73
2023/08/25 04:50:48;;;;;;;19.05;15.68;;;;;;;;;;5037848;28;20021;-74
2023/08/25 04:53:13;;;;;;;19.73;16.30;;;;;;;;;;5021069;28;20029;-73
2023/08/25 04:55:39;;;;;;;24.90;16.50;;;;;;;;;;5034302;28;20025;-74
2023/08/25 04:58:04;;;;;;;18.35;16.55;;;;;;;;;;5037467;28;20375;-73
2023/08/25 05:00:29;;;;;;;18.80;17.00;;;;;;;;;;5038363;28;20075;-73
2023/08/25 05:02:55;;;;;;;19.05;17.08;;;;;;;;;;5034116;28;20035;-72
2023/08/25 05:05:20;;;;;;;18.52;16.63;;;;;;;;;;5027948;28;20025;-75
2023/08/25 05:07:45;;;;;;;21.08;16.90;;;;;;;;;;5026578;28;20017;-74
2023/08/25 05:10:11;;;;;;;17.67;15.95;;;;;;;;;;5020949;28;20055;-74
2023/08/25 05:12:38;;;;;;;22.08;17.50;;;;;;;;;;5023152;28;20037;-76
2023/08/25 05:15:03;;;;;;;18.40;16.58;;;;;;;;;;5030770;28;20040;-73
2023/08/25 05:17:29;;;;;;;19.63;17.52;;;;;;;;;;5037005;28;20033;-73
2023/08/25 05:19:55;;;;;;;17.60;15.90;;;;;;;;;;5033350;28;20021;-74
2023/08/25 05:22:20;;;;;;;17.40;15.90;;;;;;;;;;5026129;28;20048;-74
2023/08/25 05:24:45;;;;;;;18.92;17.33;;;;;;;;;;5037250;28;20025;-74
2023/08/25 05:27:11;;;;;;;18.25;16.38;;;;;;;;;;5037624;28;20095;-74
2023/08/25 05:29:36;;;;;;;17.83;16.20;;;;;;;;;;5038502;28;20071;-75
2023/08/25 05:32:01;;;;;;;17.40;16.00;;;;;;;;;;5037193;28;20414;-74
2023/08/25 05:34:27;;;;;;;18.30;16.50;;;;;;;;;;5037333;28;20090;-73
2023/08/25 05:36:53;;;;;;;17.50;15.90;;;;;;;;;;5039172;28;20043;-73
2023/08/25 05:39:20;;;;;;;17.52;15.35;;;;;;;;;;5037254;28;20017;-72
2023/08/25 05:41:45;;;;;;;18.70;17.10;;;;;;;;;;5029620;28;20025;-77
2023/08/25 05:44:11;;;;;;;18.30;16.52;;;;;;;;;;5036418;28;20037;-75
2023/08/25 05:46:36;;;;;;;18.70;17.08;;;;;;;;;;5035179;28;20574;-75
2023/08/25 05:49:02;;;;;;;18.00;16.17;;;;;;;;;;5029263;28;20411;-73
2023/08/25 05:51:27;;;;;;;18.88;17.27;;;;;;;;;;5036744;28;20052;-76
2023/08/25 05:53:53;;;;;;;18.85;17.15;;;;;;;;;;5036795;28;20037;-76
2023/08/25 05:56:18;;;;;;;18.35;16.80;;;;;;;;;;5036994;28;20032;-75
2023/08/25 05:58:44;;;;;;;17.65;16.02;;;;;;;;;;5038286;28;20017;-75
2023/08/25 06:01:10;;;;;;;18.10;16.42;;;;;;;;;;5034442;28;20125;-75
2023/08/25 06:03:36;;;;;;;19.90;17.38;;;;;;;;;;5036902;28;20032;-77
2023/08/25 06:06:01;;;;;;;19.80;16.48;;;;;;;;;;5036490;28;20037;-74
2023/08/25 06:08:26;;;;;;;16.98;15.38;;;;;;;;;;5034616;28;20029;-76
2023/08/25 06:10:52;;;;;;;17.98;16.25;;;;;;;;;;5036332;28;20028;-74
2023/08/25 06:13:18;;;;;;;17.52;15.65;;;;;;;;;;5037021;28;20132;-75
2023/08/25 06:15:43;;;;;;;17.92;15.98;;;;;;;;;;5038284;28;20356;-75
2023/08/25 06:18:09;;;;;;;17.73;16.13;;;;;;;;;;5036440;28;20452;-78
2023/08/25 06:20:35;;;;;;;17.42;15.65;;;;;;;;;;5035706;28;20045;-75
2023/08/25 06:23:00;;;;;;;17.60;15.30;;;;;;;;;;5035825;28;20384;-73
2023/08/25 06:25:25;;;;;;;17.25;15.73;;;;;;;;;;5036465;28;20040;-72
2023/08/25 06:27:51;;;;;;;17.92;15.85;;;;;;;;;;5035774;28;20039;-74
2023/08/25 06:30:17;;;;;;;17.00;15.57;;;;;;;;;;5034854;28;20049;-72
2023/08/25 06:32:43;;;;;;;17.35;15.70;;;;;;;;;;5035395;28;20076;-73
2023/08/25 06:35:09;;;;;;;16.58;15.13;;;;;;;;;;5036126;28;20467;-75
2023/08/25 06:37:34;;;;;;;18.98;17.05;;;;;;;;;;5027375;28;20025;-75
2023/08/25 06:40:01;;;;;;;17.98;16.40;;;;;;;;;;5037228;28;20238;-76
2023/08/25 06:42:26;;;;;;;17.48;16.08;;;;;;;;;;5036688;28;20109;-74
2023/08/25 06:44:51;;;;;;;16.63;14.98;;;;;;;;;;5035777;28;20438;-74
2023/08/25 06:47:17;;;;;;;18.27;16.60;;;;;;;;;;5049686;28;20041;-74
2023/08/25 06:49:42;;;;;;;17.55;16.13;;;;;;;;;;5056447;28;20032;-73
2023/08/25 06:52:07;;;;;;;16.95;15.20;;;;;;;;;;5053998;28;20393;-74
2023/08/25 06:54:34;;;;;;;16.42;15.02;;;;;;;;;;5047935;28;20539;-75
2023/08/25 06:56:59;;;;;;;17.35;15.70;;;;;;;;;;5055382;28;20134;-75
2023/08/25 06:59:25;;;;;;;16.65;15.23;;;;;;;;;;5055140;28;20020;-74
2023/08/25 07:01:50;;;;;;;17.05;15.43;;;;;;;;;;5048349;28;20041;-75
2023/08/25 07:04:15;;;;;;;16.50;15.02;;;;;;;;;;5033629;28;20048;-73
2023/08/25 07:06:42;;;;;;;17.50;15.82;;;;;;;;;;5042785;28;20103;-76
2023/08/25 07:09:07;;;;;;;16.63;14.90;;;;;;;;;;5043330;28;20024;-73
2023/08/25 07:11:33;;;;;;;17.42;15.80;;;;;;;;;;5046782;28;20091;-77
2023/08/25 07:13:58;;;;;;;16.23;14.82;;;;;;;;;;5053814;28;20094;-77
2023/08/25 07:16:24;;;;;;;17.58;15.93;;;;;;;;;;5054851;28;20078;-75
2023/08/25 07:18:50;;;;;;;19.30;15.70;;;;;;;;;;5054232;28;20509;-76
2023/08/25 07:21:15;;;;;;;16.23;14.73;;;;;;;;;;5054893;28;20099;-76
2023/08/25 07:23:41;;;;;;;16.80;15.10;;;;;;;;;;5053868;28;20033;-74
2023/08/25 07:26:06;;;;;;;17.45;15.73;;;;;;;;;;5054225;28;20024;-76
2023/08/25 07:28:32;;;;;;;16.02;14.50;;;;;;;;;;5056800;28;20416;-78
2023/08/25 07:30:59;;;;;;;16.85;14.98;;;;;;;;;;5048942;28;20039;-75
2023/08/25 07:33:24;;;;;;;16.00;14.50;;;;;;;;;;5047657;28;20040;-76
2023/08/25 07:35:50;;;;;;;17.55;15.95;;;;;;;;;;5055449;28;20093;-74
2023/08/25 07:38:16;;;;;;;15.27;13.98;;;;;;;;;;5055289;28;20032;-76
2023/08/25 07:40:41;;;;;;;16.50;15.02;;;;;;;;;;5054862;28;20028;-76
2023/08/25 07:43:06;;;;;;;15.80;14.30;;;;;;;;;;5049643;28;20038;-75
2023/08/25 07:45:32;;;;;;;16.92;15.43;;;;;;;;;;5051889;28;20116;-77
2023/08/25 07:48:02;;;;;;;18.17;13.95;;;;;;;;;;5056030;28;20502;-74
2023/08/25 07:50:28;;;;;;;15.38;13.95;;;;;;;;;;5053905;28;20143;-75
2023/08/25 07:52:53;;;;;;;16.10;14.70;;;;;;;;;;5055641;28;20406;-75
2023/08/25 07:55:19;;;;;;;16.88;15.23;;;;;;;;;;5054731;28;20111;-78
2023/08/25 07:57:46;;;;;;;19.50;15.32;;;;;;;;;;5054481;28;20472;-77
2023/08/25 08:00:15;;;;;;;15.15;13.68;;;;;;;;;;5056054;28;20318;-74
2023/08/25 08:02:42;;;;;;;14.80;13.40;;;;;;;;;;5055414;28;20129;-76
2023/08/25 08:05:07;;;;;;;13.82;12.63;;;;;;;;;;5054809;28;20035;-74
2023/08/25 08:07:34;;;;;;;14.43;13.00;;;;;;;;;;5052803;28;20020;-75
2023/08/25 08:09:59;;;;;;;13.52;11.95;;;;;;;;;;5052331;28;20075;-75
2023/08/25 08:12:25;;;;;;;11.68;10.68;;;;;;;;;;5053144;28;20376;-77
2023/08/25 08:14:50;;;;;;;11.50;10.40;;;;;;;;;;5054530;28;20020;-76
2023/08/25 08:17:15;;;;;;;11.20;10.35;;;;;;;;;;5054300;28;20359;-74
2023/08/25 08:19:41;;;;;;;10.80;9.80;;;;;;;;;;5054536;28;20024;-75
2023/08/25 08:22:06;;;;;;;10.73;9.73;;;;;;;;;;5052788;28;20123;-75
2023/08/25 08:24:34;;;;;;;11.20;9.70;;;;;;;;;;5055499;28;20109;-78
2023/08/25 08:26:59;;;;;;;9.98;8.95;;;;;;;;;;5054271;28;20028;-75
2023/08/25 08:29:25;;;;;;;10.05;8.52;;;;;;;;;;5054972;28;20359;-77
2023/08/25 08:31:50;;;;;;;14.75;9.00;;;;;;;;;;5054056;28;20033;-75
2023/08/25 08:34:16;;;;;;;9.23;7.30;;;;;;;;;;5054259;28;20448;-74
2023/08/25 08:36:41;;;;;;;8.68;7.70;;;;;;;;;;5055025;28;20029;-75
2023/08/25 08:39:07;;;;;;;9.63;7.70;;;;;;;;;;5045322;28;20104;-75
2023/08/25 08:41:33;;;;;;;8.35;7.55;;;;;;;;;;5040966;28;20032;-72
2023/08/25 08:43:59;;;;;;;8.80;8.00;;;;;;;;;;5040039;28;20372;-74
2023/08/25 08:46:27;;;;;;;8.10;7.40;;;;;;;;;;5036704;28;20737;-74
2023/08/25 08:48:53;;;;;;;8.65;7.75;;;;;;;;;;5022423;28;20025;-75
2023/08/25 08:51:18;;;;;;;9.63;7.20;;;;;;;;;;5021129;28;20034;-74
2023/08/25 08:53:45;;;;;;;11.10;8.02;;;;;;;;;;5022492;28;20029;-75
2023/08/25 08:56:10;;;;;;;8.73;7.93;;;;;;;;;;5023391;28;20054;-73
2023/08/25 08:58:36;;;;;;;8.20;7.47;;;;;;;;;;5023581;28;20352;-75
2023/08/25 09:01:01;;;;;;;8.05;7.25;;;;;;;;;;5019388;28;20122;-80
2023/08/25 09:03:32;;;;;;;8.50;7.60;;;;;;;;;;5007775;28;20029;-75
2023/08/25 09:05:59;;;;;;;14.73;10.80;;;;;;;;;;5027836;28;20098;-82
2023/08/25 09:08:25;;;;;;;11.68;10.50;;;;;;;;;;5030762;28;20083;-80
2023/08/25 09:10:50;;;;;;;13.15;12.05;;;;;;;;;;5035835;28;20026;-81
2023/08/25 09:13:16;;;;;;;9.82;8.80;;;;;;;;;;5038687;28;20364;-80
2023/08/25 09:15:42;;;;;;;10.68;7.00;;;;;;;;;;5037081;28;20024;-81
2023/08/25 09:18:08;;;;;;;7.03;6.38;;;;;;;;;;5037154;28;20032;-79
2023/08/25 09:20:35;;;;;;;6.88;6.20;;;;;;;;;;5036448;28;20025;-79
2023/08/25 09:23:00;;;;;;;7.05;6.38;;;;;;;;;;5036702;28;20180;-80
2023/08/25 09:25:26;;;;;;;9.48;6.13;;;;;;;;;;5038108;28;20112;-78
2023/08/25 09:27:59;;;;;;;7.93;6.65;;;;;;;;;;5036979;28;20067;-78
2023/08/25 09:30:35;;;;;;;6.72;6.13;;;;;;;;;;5037051;28;21001;-75
2023/08/25 09:33:08;;;;;;;7.80;6.03;;;;;;;;;;5032148;28;20028;-74
2023/08/25 09:35:33;;;;;;;6.53;5.82;;;;;;;;;;5028339;28;20052;-77
2023/08/25 09:37:59;;;;;;;6.45;5.88;;;;;;;;;;5024170;28;20064;-75
2023/08/25 09:40:25;;;;;;;6.28;5.70;;;;;;;;;;5025925;28;20056;-75
2023/08/25 09:42:56;;;;;;;6.32;5.82;;;;;;;;;;5029489;28;20380;-78
2023/08/25 09:45:21;;;;;;;7.05;6.32;;;;;;;;;;5025994;28;20086;-79
2023/08/25 09:47:46;;;;;;;6.85;5.65;;;;;;;;;;5026272;28;20428;-73
2023/08/25 09:50:13;;;;;;;8.35;5.85;;;;;;;;;;5023125;28;20035;-75
2023/08/25 09:52:40;;;;;;;6.32;5.82;;;;;;;;;;5024249;28;20024;-73
2023/08/25 09:55:05;;;;;;;6.75;6.10;;;;;;;;;;5019377;28;20025;-73
2023/08/25 09:57:32;;;;;;;6.93;5.50;;;;;;;;;;5019832;28;20039;-73
2023/08/25 09:59:58;;;;;;;8.55;5.75;;;;;;;;;;5021322;28;20037;-71
2023/08/25 10:02:24;;;;;;;8.23;6.05;;;;;;;;;;5018614;28;20032;-76
2023/08/25 10:04:50;;;;;;;8.10;5.97;;;;;;;;;;5020542;28;20504;-74
2023/08/25 10:07:16;;;;;;;9.90;6.22;;;;;;;;;;5022326;28;20035;-76
2023/08/25 10:09:41;;;;;;;6.50;5.82;;;;;;;;;;5023440;28;20441;-75
2023/08/25 10:12:07;;;;;;;6.85;6.15;;;;;;;;;;5021638;28;20029;-75
2023/08/25 10:14:33;;;;;;;6.30;5.80;;;;;;;;;;5000364;28;20080;-76
2023/08/25 10:17:00;;;;;;;8.05;6.32;;;;;;;;;;5001746;28;20037;-74
2023/08/25 10:19:29;;;;;;;6.05;5.55;;;;;;;;;;5019338;28;20029;-72
2023/08/25 10:21:55;;;;;;;6.88;5.22;;;;;;;;;;5019662;28;20388;-72
2023/08/25 10:24:22;;;;;;;5.78;5.28;;;;;;;;;;5023014;28;20064;-75
2023/08/25 10:26:48;;;;;;;5.53;5.13;;;;;;;;;;5027264;28;20353;-76
2023/08/25 10:29:15;;;;;;;5.85;5.30;;;;;;;;;;5020702;28;20429;-75
2023/08/25 10:31:44;;;;;;;6.43;5.82;;;;;;;;;;5020120;28;20032;-75
2023/08/25 10:34:28;;;;;;;6.32;5.25;;;;;;;;;;5026056;28;20025;-76
2023/08/25 10:37:03;;;;;;;6.25;5.65;;;;;;;;;;5037196;28;20029;-73
2023/08/25 10:39:48;;;;;;;6.32;5.63;;;;;;;;;;5021644;28;20029;-75
2023/08/25 10:42:18;;;;;;;6.63;5.30;;;;;;;;;;5019423;28;20037;-73
2023/08/25 10:44:43;;;;;;;6.35;5.60;;;;;;;;;;5018158;28;20128;-74
2023/08/25 10:47:08;;;;;;;6.90;5.80;;;;;;;;;;5034039;28;20097;-73
2023/08/25 10:49:38;;;;;;;5.55;5.05;;;;;;;;;;5038673;28;20035;-77
2023/08/25 10:52:16;;;;;;;7.65;5.63;;;;;;;;;;5043369;28;20082;-73
2023/08/25 10:54:42;;;;;;;5.75;5.25;;;;;;;;;;5040896;28;20333;-75
2023/08/25 10:57:19;;;;;;;5.70;5.28;;;;;;;;;;5039076;28;20025;-76
2023/08/25 10:59:51;;;;;;;6.30;5.70;;;;;;;;;;5039936;28;20049;-75
2023/08/25 11:02:36;;;;;;;5.93;5.32;;;;;;;;;;5039203;28;20036;-74
2023/08/25 11:05:20;;;;;;;5.93;5.40;;;;;;;;;;5034237;28;20340;-76
2023/08/25 11:07:45;;;;;;;5.85;5.35;;;;;;;;;;5034192;28;20032;-75
2023/08/25 11:10:13;;;;;;;6.07;5.47;;;;;;;;;;5040826;28;20339;-77
2023/08/25 11:12:40;;;;;;;5.93;5.43;;;;;;;;;;5038762;28;20082;-75
2023/08/25 11:15:09;;;;;;;6.97;5.50;;;;;;;;;;5040107;28;20089;-74
2023/08/25 11:17:34;;;;;;;6.28;5.75;;;;;;;;;;5037305;28;20059;-74
2023/08/25 11:20:00;;;;;;;7.63;5.53;;;;;;;;;;5036558;28;20478;-73
2023/08/25 11:22:26;;;;;;;6.07;5.47;;;;;;;;;;5037163;28;20035;-75
2023/08/25 11:24:52;;;;;;;5.35;4.85;;;;;;;;;;5035142;28;20984;-75
2023/08/25 11:27:22;;;;;;;6.68;6.07;;;;;;;;;;5038411;28;20467;-75
2023/08/25 11:29:49;;;;;;;6.15;5.55;;;;;;;;;;5035714;28;20436;-73
2023/08/25 11:32:15;;;;;;;6.93;5.68;;;;;;;;;;5020186;28;20028;-74
2023/08/25 11:34:40;;;;;;;6.30;5.75;;;;;;;;;;5038194;28;20032;-75
2023/08/25 11:37:06;;;;;;;6.47;5.82;;;;;;;;;;5035609;28;20467;-74
2023/08/25 11:39:31;;;;;;;6.15;5.55;;;;;;;;;;5040408;28;20028;-75
2023/08/25 11:41:57;;;;;;;5.88;5.32;;;;;;;;;;5040986;28;20039;-74
2023/08/25 11:44:23;;;;;;;6.40;5.80;;;;;;;;;;5038117;28;20136;-73
2023/08/25 11:46:49;;;;;;;7.25;5.90;;;;;;;;;;5031417;28;20056;-75
2023/08/25 11:49:14;;;;;;;5.95;5.45;;;;;;;;;;5011877;28;20033;-74
2023/08/25 11:51:39;;;;;;;5.85;5.45;;;;;;;;;;5018954;28;20024;-78
2023/08/25 11:54:05;;;;;;;7.57;6.00;;;;;;;;;;5017863;28;20104;-75
2023/08/25 11:56:31;;;;;;;6.30;5.68;;;;;;;;;;5016088;28;20036;-75
2023/08/25 11:58:56;;;;;;;7.00;6.13;;;;;;;;;;5011691;28;20024;-74
2023/08/25 12:01:21;;;;;;;6.35;5.80;;;;;;;;;;5019110;28;20051;-78
2023/08/25 12:03:47;;;;;;;7.80;6.40;;;;;;;;;;5033226;28;20123;-74
2023/08/25 12:06:13;;;;;;;5.85;5.35;;;;;;;;;;5018222;28;20610;-75
2023/08/25 12:08:39;;;;;;;7.38;6.20;;;;;;;;;;5035520;28;20025;-74
2023/08/25 12:11:05;;;;;;;5.90;5.05;;;;;;;;;;5032677;28;20033;-72
2023/08/25 12:13:31;;;;;;;8.45;5.95;;;;;;;;;;5017797;28;20030;-75
2023/08/25 12:15:57;;;;;;;6.55;6.00;;;;;;;;;;5020906;28;20155;-74
2023/08/25 12:18:23;;;;;;;7.60;5.38;;;;;;;;;;5020616;28;21490;-74
2023/08/25 12:20:49;;;;;;;5.90;5.38;;;;;;;;;;5017680;28;20033;-73
2023/08/25 12:23:16;;;;;;;6.07;5.43;;;;;;;;;;5018491;28;20116;-74
2023/08/25 12:25:42;;;;;;;5.97;5.43;;;;;;;;;;5020783;28;20031;-74
2023/08/25 12:28:08;;;;;;;6.40;5.80;;;;;;;;;;4998552;28;20033;-76
2023/08/25 12:30:34;;;;;;;6.57;5.60;;;;;;;;;;5019587;28;20968;-75
2023/08/25 12:32:59;;;;;;;6.32;5.82;;;;;;;;;;5019568;28;20036;-74
2023/08/25 12:35:24;;;;;;;6.05;5.45;;;;;;;;;;5020850;28;20455;-74
2023/08/25 12:37:51;;;;;;;5.90;5.40;;;;;;;;;;5021035;28;20104;-73
2023/08/25 12:40:20;;;;;;;6.97;5.53;;;;;;;;;;4999347;28;20021;-74
2023/08/25 12:42:53;;;;;;;7.20;5.53;;;;;;;;;;5000407;28;20029;-75
2023/08/25 12:45:22;;;;;;;5.78;4.82;;;;;;;;;;5021992;28;20036;-74
2023/08/25 12:47:47;;;;;;;6.05;5.50;;;;;;;;;;5038039;28;20052;-74
2023/08/25 12:50:13;;;;;;;6.00;5.40;;;;;;;;;;5045245;28;20032;-74
2023/08/25 12:52:38;;;;;;;5.75;5.35;;;;;;;;;;5044035;28;20025;-74
2023/08/25 12:55:04;;;;;;;7.13;5.63;;;;;;;;;;5044127;28;20158;-74
2023/08/25 12:57:29;;;;;;;7.47;5.38;;;;;;;;;;5043025;28;20032;-72
2023/08/25 12:59:54;;;;;;;6.10;5.57;;;;;;;;;;5055972;28;20033;-75
2023/08/25 13:02:20;;;;;;;9.27;5.70;;;;;;;;;;5043334;28;20570;-73
2023/08/25 13:04:45;;;;;;;6.85;5.38;;;;;;;;;;5039570;28;20020;-74
2023/08/25 13:07:12;;;;;;;5.82;5.32;;;;;;;;;;5042506;28;20025;-74
2023/08/25 13:09:38;;;;;;;9.70;5.85;;;;;;;;;;5043275;28;20021;-74
2023/08/25 13:12:04;;;;;;;6.38;5.40;;;;;;;;;;5048508;28;20095;-73
2023/08/25 13:14:29;;;;;;;5.55;5.10;;;;;;;;;;5044086;28;20027;-73
2023/08/25 13:16:54;;;;;;;6.57;5.38;;;;;;;;;;5046857;28;21253;-74
2023/08/25 13:19:20;;;;;;;6.68;6.18;;;;;;;;;;5049225;28;20044;-72
2023/08/25 13:21:45;;;;;;;6.03;5.53;;;;;;;;;;5053260;28;20035;-75
2023/08/25 13:24:10;;;;;;;5.77;5.27;;;;;;;;;;5051397;28;20037;-72
2023/08/25 13:26:36;;;;;;;5.68;5.18;;;;;;;;;;5051875;28;20262;-77
2023/08/25 13:29:02;;;;;;;6.95;6.25;;;;;;;;;;5052807;28;20037;-76
2023/08/25 13:31:28;;;;;;;6.70;6.03;;;;;;;;;;5056101;28;20029;-76
2023/08/25 13:33:53;;;;;;;9.13;6.03;;;;;;;;;;5057049;28;20085;-77
2023/08/25 13:36:21;;;;;;;6.57;5.55;;;;;;;;;;5052277;28;20368;-73
2023/08/25 13:38:46;;;;;;;6.47;5.60;;;;;;;;;;5047088;28;20032;-72
2023/08/25 13:41:13;;;;;;;5.63;5.13;;;;;;;;;;5038511;28;20070;-74
2023/08/25 13:43:39;;;;;;;5.68;5.22;;;;;;;;;;5046454;28;20115;-74
2023/08/25 13:46:05;;;;;;;8.48;5.43;;;;;;;;;;5056990;28;20463;-75
2023/08/25 13:48:30;;;;;;;6.70;5.50;;;;;;;;;;5059279;28;20166;-75
2023/08/25 13:50:55;;;;;;;5.70;5.20;;;;;;;;;;5058204;28;20435;-74
2023/08/25 13:53:21;;;;;;;7.70;5.47;;;;;;;;;;5057076;28;20576;-73
2023/08/25 13:55:46;;;;;;;9.05;5.95;;;;;;;;;;5041940;28;20020;-71
2023/08/25 13:58:12;;;;;;;6.38;5.78;;;;;;;;;;5046317;28;20032;-74
2023/08/25 14:00:37;;;;;;;7.90;5.80;;;;;;;;;;5045403;28;20078;-74
2023/08/25 14:03:03;;;;;;;7.15;6.03;;;;;;;;;;5046192;28;20039;-73
2023/08/25 14:05:28;;;;;;;6.75;5.93;;;;;;;;;;5051987;28;20020;-73
2023/08/25 14:07:54;;;;;;;8.07;5.55;;;;;;;;;;5056028;28;20474;-73
2023/08/25 14:10:20;;;;;;;6.75;5.05;;;;;;;;;;5040557;28;20039;-76
2023/08/25 14:12:45;;;;;;;5.60;5.00;;;;;;;;;;5050389;28;20119;-76
2023/08/25 14:15:11;;;;;;;8.73;4.80;;;;;;;;;;5054375;28;20016;-75
2023/08/25 14:17:36;;;;;;;5.63;5.10;;;;;;;;;;5056244;28;20031;-76
2023/08/25 14:20:03;;;;;;;5.47;4.97;;;;;;;;;;5055970;28;20085;-75
2023/08/25 14:22:28;;;;;;;5.65;5.25;;;;;;;;;;5054902;28;20353;-73